Listerhav — ZDKC7 — position and weather

sailwx.info

Track history (hours):
 
Tides and Currents Weather Stations Pressure Air Temp Water Temp Dewpoint Dewpoint Depression Visibility Wind Speed Wind Dir Waves Ship Positions

Listerhav

Last reported at 2015-Mar-28 15:32 UTC. Time now 2015-Mar-28 15:58 UTC.
Position N 55°32' E 015°05'.

Length 88 m; draft 4.3 m.

Type: Ship. MMSI: 236591000.

Date/timePositionNaut miles runAvg speedWind from/ knotsBaromVisibWave heightAir tempDewpointWater temp
2015-Mar-28 15:32N 55°32' E 015°05'1111.6
2015-Mar-28 14:33N 55°26' E 014°47'1211.5
2015-Mar-28 13:33N 55°19' E 014°32'1111.1
2015-Mar-28 12:33N 55°11' E 014°18'1211.5
2015-Mar-28 11:33N 55°11' E 013°58'1111.5
2015-Mar-28 10:33N 55°12' E 013°38'1111.2
2015-Mar-28 09:33N 55°13' E 013°18'1111.1
2015-Mar-28 08:33N 55°14' E 012°59'1111.2
2015-Mar-28 07:33N 55°18' E 012°40'1010.3
2015-Mar-28 06:33N 55°28' E 012°40'1010.5
2015-Mar-28 05:33N 55°38' E 012°42'8 8.2
2015-Mar-28 04:33N 55°47' E 012°41'1010.1
2015-Mar-28 03:33N 55°57' E 012°38'1010.4
2015-Mar-28 02:33N 56°06' E 012°32'1211.8
2015-Mar-28 01:33N 56°12' E 012°14'74 9.0
2015-Mar-27 17:20N 56°28' E 010°03'0 0.0
2015-Mar-27 16:30N 56°28' E 010°03'0 0.0
2015-Mar-27 15:06N 56°28' E 010°03'0 0.0
2015-Mar-27 14:24N 56°28' E 010°03'0 0.0
2015-Mar-27 10:33N 56°28' E 010°03'0 0.0
2015-Mar-27 07:21N 56°28' E 010°03'0 0.0
2015-Mar-27 06:30N 56°28' E 010°03'0 0.0
2015-Mar-27 05:18N 56°28' E 010°03'0 0.0
2015-Mar-27 04:24N 56°28' E 010°03'0 0.0
2015-Mar-27 03:30N 56°28' E 010°03'0 0.0
2015-Mar-27 02:24N 56°28' E 010°03'0 0.0
2015-Mar-27 01:18N 56°28' E 010°03'0 0.0
2015-Mar-27 00:24N 56°28' E 010°03'0 0.0
2015-Mar-26 23:18N 56°28' E 010°03'0 0.0
2015-Mar-26 22:30N 56°28' E 010°03'0 0.0
2015-Mar-26 21:33N 56°28' E 010°03'0 0.0
2015-Mar-26 20:06N 56°28' E 010°03'0 0.0
2015-Mar-26 19:30N 56°28' E 010°03'0 0.0
2015-Mar-26 18:24N 56°28' E 010°03'0 0.0
2015-Mar-26 17:33N 56°28' E 010°03'0 0.0
2015-Mar-26 16:33N 56°28' E 010°03'0 0.0
2015-Mar-26 14:09N 56°28' E 010°03'1 1.2
2015-Mar-26 13:32N 56°28' E 010°04'5 4.2
2015-Mar-26 12:25N 56°28' E 010°13'7 6.8
2015-Mar-26 11:24N 56°35' E 010°17'63 9.2
2015-Mar-26 04:34N 56°18' E 012°06'1110.7
2015-Mar-26 03:34N 56°11' E 012°22'1312.9
2015-Mar-26 02:34N 56°03' E 012°40'1111.3
2015-Mar-26 01:34N 55°52' E 012°44'1111.1
2015-Mar-26 00:33N 55°41' E 012°41'1111.3
2015-Mar-25 23:33N 55°30' E 012°43'1010.4
2015-Mar-25 22:33N 55°19' E 012°41'1010.2
2015-Mar-25 21:33N 55°16' E 012°58'1110.7
2015-Mar-25 20:33N 55°15' E 013°17'1110.9
2015-Mar-25 19:33N 55°15' E 013°36'1110.8
2015-Mar-25 18:33N 55°15' E 013°54'1110.8
2015-Mar-25 17:33N 55°14' E 014°13'10 9.9
2015-Mar-25 16:33N 55°21' E 014°26'1010.2
2015-Mar-25 15:33N 55°28' E 014°39'1010.5
2015-Mar-25 14:33N 55°33' E 014°55'1110.6
2015-Mar-25 13:33N 55°38' E 015°11'  
2015-Mar-21 01:33N 55°31' E 015°04'1211.7
2015-Mar-21 00:32N 55°25' E 014°46'1211.5
2015-Mar-20 23:32N 55°18' E 014°31'1110.9
2015-Mar-20 22:33N 55°11' E 014°16'2211.2
2015-Mar-20 20:33N 55°12' E 013°37'1111.2
2015-Mar-20 19:33N 55°13' E 013°17'1111.3
2015-Mar-20 18:33N 55°14' E 012°57'1111.2
2015-Mar-20 17:33N 55°18' E 012°39'1111.3
2015-Mar-20 16:33N 55°29' E 012°33'8 7.5
2015-Mar-20 15:31N 55°36' E 012°29'0 0.0
2015-Mar-20 14:31N 55°36' E 012°29'0 0.0
2015-Mar-20 13:31N 55°36' E 012°29'0 0.0
2015-Mar-20 12:31N 55°36' E 012°29'0 0.0
2015-Mar-20 11:31N 55°36' E 012°29'0 0.0
2015-Mar-20 10:31N 55°36' E 012°29'0 0.0
2015-Mar-20 09:34N 55°36' E 012°29'0 0.0
2015-Mar-20 08:34N 55°36' E 012°29'0 0.0
2015-Mar-20 07:33N 55°36' E 012°29'0 0.0
2015-Mar-20 06:33N 55°36' E 012°29'0 0.0
2015-Mar-20 05:33N 55°36' E 012°29'0 0.0
2015-Mar-20 04:33N 55°36' E 012°29'0 0.0
2015-Mar-20 03:30N 55°36' E 012°29'0 0.0
2015-Mar-20 02:33N 55°36' E 012°29'0 0.0
2015-Mar-20 01:33N 55°36' E 012°29'0 0.0
2015-Mar-20 00:30N 55°36' E 012°29'0 0.0
2015-Mar-19 23:33N 55°36' E 012°29'0 0.0
2015-Mar-19 22:33N 55°36' E 012°29'0 0.0
2015-Mar-19 21:33N 55°36' E 012°29'0 0.0
2015-Mar-19 20:33N 55°36' E 012°29'2 2.1
2015-Mar-19 19:34N 55°34' E 012°29'1 1.2
2015-Mar-19 18:31N 55°33' E 012°28'0 0.0
2015-Mar-19 17:31N 55°33' E 012°28'0 0.0
2015-Mar-19 16:31N 55°33' E 012°28'0 0.0
2015-Mar-19 15:31N 55°33' E 012°28'0 0.0
2015-Mar-19 14:31N 55°33' E 012°28'0 0.0
2015-Mar-19 13:31N 55°33' E 012°28'0 0.0
2015-Mar-19 12:31N 55°33' E 012°28'0 0.0
2015-Mar-19 11:31N 55°33' E 012°28'0 0.0
2015-Mar-19 10:31N 55°33' E 012°28'0 0.0
2015-Mar-19 09:31N 55°33' E 012°28'0 0.0
2015-Mar-19 08:31N 55°33' E 012°28'0 0.0
2015-Mar-19 07:31N 55°33' E 012°27'0 0.0
2015-Mar-19 06:31N 55°33' E 012°27'0 0.0
2015-Mar-19 05:31N 55°33' E 012°27'0 0.0
2015-Mar-19 04:31N 55°33' E 012°27'0 0.0
2015-Mar-19 03:31N 55°33' E 012°27'4 4.1
2015-Mar-19 02:33N 55°30' E 012°31'9 8.8
2015-Mar-19 01:33N 55°22' E 012°37'9 8.6
2015-Mar-19 00:33N 55°17' E 012°50'9 9.5
2015-Mar-18 23:33N 55°16' E 013°06'10 9.6
2015-Mar-18 22:33N 55°15' E 013°23'9 9.5
2015-Mar-18 21:33N 55°14' E 013°39'9 9.4
2015-Mar-18 20:33N 55°14' E 013°56'9 9.5
2015-Mar-18 19:33N 55°14' E 014°13'10 9.6
2015-Mar-18 18:33N 55°20' E 014°25'1110.4
2015-Mar-18 17:32N 55°27' E 014°39'1010.2
2015-Mar-18 16:33N 55°32' E 014°54'1010.1
2015-Mar-18 15:32N 55°38' E 015°10'  
Track history (hours):
 
Tides and Currents Weather Stations Pressure Air Temp Water Temp Dewpoint Dewpoint Depression Visibility Wind Speed Wind Dir Waves Ship Positions

Listerhav

Last reported at 2015-Mar-28 15:32 UTC. Time now 2015-Mar-28 15:58 UTC.
Position N 55°32' E 015°05'.

Length 88 m; draft 4.3 m.

Type: Ship. MMSI: 236591000.

Date/timePositionNaut miles runAvg speedWind from/ knotsBaromVisibWave heightAir tempDewpointWater temp
2015-Mar-28 15:32N 55°32' E 015°05'1111.6
2015-Mar-28 14:33N 55°26' E 014°47'1211.5
2015-Mar-28 13:33N 55°19' E 014°32'1111.1
2015-Mar-28 12:33N 55°11' E 014°18'1211.5
2015-Mar-28 11:33N 55°11' E 013°58'1111.5
2015-Mar-28 10:33N 55°12' E 013°38'1111.2
2015-Mar-28 09:33N 55°13' E 013°18'1111.1
2015-Mar-28 08:33N 55°14' E 012°59'1111.2
2015-Mar-28 07:33N 55°18' E 012°40'1010.3
2015-Mar-28 06:33N 55°28' E 012°40'1010.5
2015-Mar-28 05:33N 55°38' E 012°42'8 8.2
2015-Mar-28 04:33N 55°47' E 012°41'1010.1
2015-Mar-28 03:33N 55°57' E 012°38'1010.4
2015-Mar-28 02:33N 56°06' E 012°32'1211.8
2015-Mar-28 01:33N 56°12' E 012°14'74 9.0
2015-Mar-27 17:20N 56°28' E 010°03'0 0.0
2015-Mar-27 16:30N 56°28' E 010°03'0 0.0
2015-Mar-27 15:06N 56°28' E 010°03'0 0.0
2015-Mar-27 14:24N 56°28' E 010°03'0 0.0
2015-Mar-27 10:33N 56°28' E 010°03'0 0.0
2015-Mar-27 07:21N 56°28' E 010°03'0 0.0
2015-Mar-27 06:30N 56°28' E 010°03'0 0.0
2015-Mar-27 05:18N 56°28' E 010°03'0 0.0
2015-Mar-27 04:24N 56°28' E 010°03'0 0.0
2015-Mar-27 03:30N 56°28' E 010°03'0 0.0
2015-Mar-27 02:24N 56°28' E 010°03'0 0.0
2015-Mar-27 01:18N 56°28' E 010°03'0 0.0
2015-Mar-27 00:24N 56°28' E 010°03'0 0.0
2015-Mar-26 23:18N 56°28' E 010°03'0 0.0
2015-Mar-26 22:30N 56°28' E 010°03'0 0.0
2015-Mar-26 21:33N 56°28' E 010°03'0 0.0
2015-Mar-26 20:06N 56°28' E 010°03'0 0.0
2015-Mar-26 19:30N 56°28' E 010°03'0 0.0
2015-Mar-26 18:24N 56°28' E 010°03'0 0.0
2015-Mar-26 17:33N 56°28' E 010°03'0 0.0
2015-Mar-26 16:33N 56°28' E 010°03'0 0.0
2015-Mar-26 14:09N 56°28' E 010°03'1 1.2
2015-Mar-26 13:32N 56°28' E 010°04'5 4.2
2015-Mar-26 12:25N 56°28' E 010°13'7 6.8
2015-Mar-26 11:24N 56°35' E 010°17'63 9.2
2015-Mar-26 04:34N 56°18' E 012°06'1110.7
2015-Mar-26 03:34N 56°11' E 012°22'1312.9
2015-Mar-26 02:34N 56°03' E 012°40'1111.3
2015-Mar-26 01:34N 55°52' E 012°44'1111.1
2015-Mar-26 00:33N 55°41' E 012°41'1111.3
2015-Mar-25 23:33N 55°30' E 012°43'1010.4
2015-Mar-25 22:33N 55°19' E 012°41'1010.2
2015-Mar-25 21:33N 55°16' E 012°58'1110.7
2015-Mar-25 20:33N 55°15' E 013°17'1110.9
2015-Mar-25 19:33N 55°15' E 013°36'1110.8
2015-Mar-25 18:33N 55°15' E 013°54'1110.8
2015-Mar-25 17:33N 55°14' E 014°13'10 9.9
2015-Mar-25 16:33N 55°21' E 014°26'1010.2
2015-Mar-25 15:33N 55°28' E 014°39'1010.5
2015-Mar-25 14:33N 55°33' E 014°55'1110.6
2015-Mar-25 13:33N 55°38' E 015°11'  
2015-Mar-21 01:33N 55°31' E 015°04'1211.7
2015-Mar-21 00:32N 55°25' E 014°46'1211.5
2015-Mar-20 23:32N 55°18' E 014°31'1110.9
2015-Mar-20 22:33N 55°11' E 014°16'2211.2
2015-Mar-20 20:33N 55°12' E 013°37'1111.2
2015-Mar-20 19:33N 55°13' E 013°17'1111.3
2015-Mar-20 18:33N 55°14' E 012°57'1111.2
2015-Mar-20 17:33N 55°18' E 012°39'1111.3
2015-Mar-20 16:33N 55°29' E 012°33'8 7.5
2015-Mar-20 15:31N 55°36' E 012°29'0 0.0
2015-Mar-20 14:31N 55°36' E 012°29'0 0.0
2015-Mar-20 13:31N 55°36' E 012°29'0 0.0
2015-Mar-20 12:31N 55°36' E 012°29'0 0.0
2015-Mar-20 11:31N 55°36' E 012°29'0 0.0
2015-Mar-20 10:31N 55°36' E 012°29'0 0.0
2015-Mar-20 09:34N 55°36' E 012°29'0 0.0
2015-Mar-20 08:34N 55°36' E 012°29'0 0.0
2015-Mar-20 07:33N 55°36' E 012°29'0 0.0
2015-Mar-20 06:33N 55°36' E 012°29'0 0.0
2015-Mar-20 05:33N 55°36' E 012°29'0 0.0
2015-Mar-20 04:33N 55°36' E 012°29'0 0.0
2015-Mar-20 03:30N 55°36' E 012°29'0 0.0
2015-Mar-20 02:33N 55°36' E 012°29'0 0.0
2015-Mar-20 01:33N 55°36' E 012°29'0 0.0
2015-Mar-20 00:30N 55°36' E 012°29'0 0.0
2015-Mar-19 23:33N 55°36' E 012°29'0 0.0
2015-Mar-19 22:33N 55°36' E 012°29'0 0.0
2015-Mar-19 21:33N 55°36' E 012°29'0 0.0
2015-Mar-19 20:33N 55°36' E 012°29'2 2.1
2015-Mar-19 19:34N 55°34' E 012°29'1 1.2
2015-Mar-19 18:31N 55°33' E 012°28'0 0.0
2015-Mar-19 17:31N 55°33' E 012°28'0 0.0
2015-Mar-19 16:31N 55°33' E 012°28'0 0.0
2015-Mar-19 15:31N 55°33' E 012°28'0 0.0
2015-Mar-19 14:31N 55°33' E 012°28'0 0.0
2015-Mar-19 13:31N 55°33' E 012°28'0 0.0
2015-Mar-19 12:31N 55°33' E 012°28'0 0.0
2015-Mar-19 11:31N 55°33' E 012°28'0 0.0
2015-Mar-19 10:31N 55°33' E 012°28'0 0.0
2015-Mar-19 09:31N 55°33' E 012°28'0 0.0
2015-Mar-19 08:31N 55°33' E 012°28'0 0.0
2015-Mar-19 07:31N 55°33' E 012°27'0 0.0
2015-Mar-19 06:31N 55°33' E 012°27'0 0.0
2015-Mar-19 05:31N 55°33' E 012°27'0 0.0
2015-Mar-19 04:31N 55°33' E 012°27'0 0.0
2015-Mar-19 03:31N 55°33' E 012°27'4 4.1
2015-Mar-19 02:33N 55°30' E 012°31'9 8.8
2015-Mar-19 01:33N 55°22' E 012°37'9 8.6
2015-Mar-19 00:33N 55°17' E 012°50'9 9.5
2015-Mar-18 23:33N 55°16' E 013°06'10 9.6
2015-Mar-18 22:33N 55°15' E 013°23'9 9.5
2015-Mar-18 21:33N 55°14' E 013°39'9 9.4
2015-Mar-18 20:33N 55°14' E 013°56'9 9.5
2015-Mar-18 19:33N 55°14' E 014°13'10 9.6
2015-Mar-18 18:33N 55°20' E 014°25'1110.4
2015-Mar-18 17:32N 55°27' E 014°39'1010.2
2015-Mar-18 16:33N 55°32' E 014°54'1010.1
2015-Mar-18 15:32N 55°38' E 015°10'  

Dump ship's entire track history